EGPF/GLA METAR and TAF weather

Enter ICAO airport designator
Station Type Date Time Source
EGPF METAR 2019/04/22 19:50 UTC NOAA

EGPF 221950Z AUTO 08005KT 020V120 9999 NCD 17/04 Q1003


Station Type Date Time Source
EGPF Decoded METAR 2019/04/22 19:50 UTC NOAA

Glasgow Airport, United Kingdom (EGPF) 55-52N 004-26W 0M
Apr 22, 2019 - 03:50 PM EDT / 2019.04.22 1950 UTC
Wind: from the E (080 degrees) at 6 MPH (5 KT) (direction variable):0
Visibility: greater than 7 mile(s):0
Temperature: 62 F (17 C)
Dew Point: 39 F (4 C)
Relative Humidity: 41%
Pressure (altimeter): 29.62 in. Hg (1003 hPa)
ob: EGPF 221950Z AUTO 08005KT 020V120 9999 NCD 17/04 Q1003
cycle: 20

Station Type Date Time Source
EGPF TAF 2019/04/22 18:06 UTC NOAA

TAF EGPF 221657Z 2218/2318 14010KT CAVOK
BECMG 2218/2221 08008KT

Example: see airport list